sensor_id;sensor_type;location;lat;lon;timestamp;pressure;altitude;pressure_sealevel;temperature;humidity
68169;BME280;54981;50.206;15.978;2023-11-22T00:08:13;99091.34;;;1.08;100.00
68169;BME280;54981;50.206;15.978;2023-11-22T00:18:13;99092.13;;;1.13;100.00
68169;BME280;54981;50.206;15.978;2023-11-22T00:28:14;99104.44;;;1.09;100.00
68169;BME280;54981;50.206;15.978;2023-11-22T00:38:14;99117.50;;;1.14;100.00
68169;BME280;54981;50.206;15.978;2023-11-22T00:48:15;99112.25;;;1.12;100.00
68169;BME280;54981;50.206;15.978;2023-11-22T00:58:15;99109.88;;;0.95;100.00
68169;BME280;54981;50.206;15.978;2023-11-22T01:08:16;99111.63;;;0.95;100.00
68169;BME280;54981;50.206;15.978;2023-11-22T01:18:16;99131.81;;;0.88;100.00
68169;BME280;54981;50.206;15.978;2023-11-22T01:28:16;99138.91;;;0.80;100.00
68169;BME280;54981;50.206;15.978;2023-11-22T01:38:20;99150.31;;;0.74;100.00
68169;BME280;54981;50.206;15.978;2023-11-22T01:48:21;99167.78;;;0.74;100.00
68169;BME280;54981;50.206;15.978;2023-11-22T01:58:21;99175.69;;;0.72;100.00
68169;BME280;54981;50.206;15.978;2023-11-22T02:08:23;99185.38;;;0.62;100.00
68169;BME280;54981;50.206;15.978;2023-11-22T02:18:23;99210.75;;;0.59;100.00
68169;BME280;54981;50.206;15.978;2023-11-22T02:28:24;99222.19;;;0.50;100.00
68169;BME280;54981;50.206;15.978;2023-11-22T02:38:24;99222.22;;;0.47;100.00
68169;BME280;54981;50.206;15.978;2023-11-22T02:48:26;99245.84;;;0.44;100.00
68169;BME280;54981;50.206;15.978;2023-11-22T02:58:28;99268.53;;;0.48;100.00
68169;BME280;54981;50.206;15.978;2023-11-22T03:08:29;99274.72;;;0.36;100.00
68169;BME280;54981;50.206;15.978;2023-11-22T03:18:29;99296.53;;;0.35;100.00
68169;BME280;54981;50.206;15.978;2023-11-22T03:28:30;99306.16;;;0.33;100.00
68169;BME280;54981;50.206;15.978;2023-11-22T03:38:31;99347.22;;;0.28;100.00
68169;BME280;54981;50.206;15.978;2023-11-22T03:48:31;99365.69;;;0.10;100.00
68169;BME280;54981;50.206;15.978;2023-11-22T03:58:32;99377.06;;;0.06;100.00
68169;BME280;54981;50.206;15.978;2023-11-22T04:08:32;99373.56;;;0.05;100.00
68169;BME280;54981;50.206;15.978;2023-11-22T04:18:32;99391.00;;;0.06;100.00
68169;BME280;54981;50.206;15.978;2023-11-22T04:28:33;99388.41;;;0.08;100.00
68169;BME280;54981;50.206;15.978;2023-11-22T04:38:33;99418.09;;;0.01;100.00
68169;BME280;54981;50.206;15.978;2023-11-22T04:48:34;99410.28;;;-0.07;100.00
68169;BME280;54981;50.206;15.978;2023-11-22T05:08:38;99424.28;;;-0.14;100.00
68169;BME280;54981;50.206;15.978;2023-11-22T05:18:39;99433.88;;;-0.18;100.00
68169;BME280;54981;50.206;15.978;2023-11-22T05:28:39;99453.09;;;-0.19;100.00
68169;BME280;54981;50.206;15.978;2023-11-22T05:38:39;99480.13;;;-0.22;100.00
68169;BME280;54981;50.206;15.978;2023-11-22T05:48:40;99511.50;;;-0.11;100.00
68169;BME280;54981;50.206;15.978;2023-11-22T05:58:40;99544.66;;;-0.17;100.00
68169;BME280;54981;50.206;15.978;2023-11-22T06:08:40;99544.66;;;-0.14;100.00
68169;BME280;54981;50.206;15.978;2023-11-22T06:18:41;99564.72;;;-0.19;100.00
68169;BME280;54981;50.206;15.978;2023-11-22T06:28:41;99584.78;;;-0.20;100.00
68169;BME280;54981;50.206;15.978;2023-11-22T06:38:42;99569.94;;;-0.18;100.00
68169;BME280;54981;50.206;15.978;2023-11-22T06:48:43;99598.75;;;-0.18;100.00
68169;BME280;54981;50.206;15.978;2023-11-22T06:58:47;99612.69;;;-0.30;100.00
68169;BME280;54981;50.206;15.978;2023-11-22T07:08:48;99629.28;;;-0.37;100.00
68169;BME280;54981;50.206;15.978;2023-11-22T07:18:50;99630.16;;;-0.38;100.00
68169;BME280;54981;50.206;15.978;2023-11-22T07:28:50;99655.44;;;-0.49;100.00
68169;BME280;54981;50.206;15.978;2023-11-22T07:38:50;99672.88;;;-0.53;100.00
68169;BME280;54981;50.206;15.978;2023-11-22T07:48:53;99662.38;;;-0.56;100.00
68169;BME280;54981;50.206;15.978;2023-11-22T07:58:54;99649.34;;;-0.42;100.00
68169;BME280;54981;50.206;15.978;2023-11-22T08:08:54;99663.31;;;-0.18;100.00
68169;BME280;54981;50.206;15.978;2023-11-22T08:18:55;99692.09;;;-0.18;100.00
68169;BME280;54981;50.206;15.978;2023-11-22T08:28:56;99741.78;;;-0.25;100.00
68169;BME280;54981;50.206;15.978;2023-11-22T08:38:57;99775.84;;;-0.14;100.00
68169;BME280;54981;50.206;15.978;2023-11-22T08:49:00;99761.88;;;-0.24;100.00
68169;BME280;54981;50.206;15.978;2023-11-22T08:59:00;99710.41;;;-0.06;100.00
68169;BME280;54981;50.206;15.978;2023-11-22T09:09:00;99743.56;;;0.33;100.00
68169;BME280;54981;50.206;15.978;2023-11-22T09:19:01;99756.69;;;0.19;100.00
68169;BME280;54981;50.206;15.978;2023-11-22T09:29:01;99748.78;;;0.42;100.00
68169;BME280;54981;50.206;15.978;2023-11-22T09:39:02;99757.53;;;0.31;100.00
68169;BME280;54981;50.206;15.978;2023-11-22T09:49:05;99756.69;;;0.18;100.00
68169;BME280;54981;50.206;15.978;2023-11-22T09:59:08;99753.16;;;-0.01;100.00
68169;BME280;54981;50.206;15.978;2023-11-22T10:09:12;99752.31;;;0.18;100.00
68169;BME280;54981;50.206;15.978;2023-11-22T10:19:17;99769.78;;;0.41;100.00
68169;BME280;54981;50.206;15.978;2023-11-22T10:29:18;99785.50;;;0.44;100.00
68169;BME280;54981;50.206;15.978;2023-11-22T10:39:22;99808.19;;;0.33;100.00
68169;BME280;54981;50.206;15.978;2023-11-22T10:49:23;99843.09;;;0.13;100.00
68169;BME280;54981;50.206;15.978;2023-11-22T10:59:26;99853.59;;;0.35;100.00
68169;BME280;54981;50.206;15.978;2023-11-22T11:09:28;99876.28;;;0.36;100.00
68169;BME280;54981;50.206;15.978;2023-11-22T11:19:32;99872.81;;;0.37;100.00
68169;BME280;54981;50.206;15.978;2023-11-22T11:29:34;99865.81;;;0.27;100.00
68169;BME280;54981;50.206;15.978;2023-11-22T11:39:36;99867.59;;;0.68;100.00
68169;BME280;54981;50.206;15.978;2023-11-22T11:49:37;99861.44;;;0.55;100.00
68169;BME280;54981;50.206;15.978;2023-11-22T11:59:41;99857.06;;;0.26;100.00
68169;BME280;54981;50.206;15.978;2023-11-22T12:09:41;99852.72;;;0.39;100.00
68169;BME280;54981;50.206;15.978;2023-11-22T12:41:50;99865.81;;;0.42;100.00
68169;BME280;54981;50.206;15.978;2023-11-22T12:51:56;99878.84;;;0.11;100.00
68169;BME280;54981;50.206;15.978;2023-11-22T13:01:59;99890.19;;;0.09;100.00
68169;BME280;54981;50.206;15.978;2023-11-22T13:12:00;99901.56;;;0.11;100.00
68169;BME280;54981;50.206;15.978;2023-11-22T13:22:01;99891.94;;;0.05;100.00
68169;BME280;54981;50.206;15.978;2023-11-22T13:32:01;99890.16;;;-0.04;100.00
68169;BME280;54981;50.206;15.978;2023-11-22T13:42:02;99905.84;;;-0.05;100.00
68169;BME280;54981;50.206;15.978;2023-11-22T13:52:03;99903.22;;;-0.16;100.00
68169;BME280;54981;50.206;15.978;2023-11-22T14:02:03;99910.25;;;0.04;100.00
68169;BME280;54981;50.206;15.978;2023-11-22T14:12:04;99913.75;;;0.01;100.00
68169;BME280;54981;50.206;15.978;2023-11-22T14:22:04;99918.09;;;-0.03;100.00
68169;BME280;54981;50.206;15.978;2023-11-22T14:32:05;99911.94;;;-0.15;100.00
68169;BME280;54981;50.206;15.978;2023-11-22T14:42:05;99883.09;;;-0.31;100.00
68169;BME280;54981;50.206;15.978;2023-11-22T14:52:07;99869.03;;;-0.48;100.00
68169;BME280;54981;50.206;15.978;2023-11-22T15:02:10;99892.41;;;-0.83;100.00
68169;BME280;54981;50.206;15.978;2023-11-22T15:12:11;99893.28;;;-0.80;100.00
68169;BME280;54981;50.206;15.978;2023-11-22T15:22:12;99912.53;;;-0.70;100.00
68169;BME280;54981;50.206;15.978;2023-11-22T15:32:12;99877.72;;;-0.58;100.00
68169;BME280;54981;50.206;15.978;2023-11-22T15:42:15;99923.94;;;-0.56;100.00
68169;BME280;54981;50.206;15.978;2023-11-22T15:52:16;99939.78;;;-0.27;100.00
68169;BME280;54981;50.206;15.978;2023-11-22T16:02:17;99931.13;;;-0.15;100.00
68169;BME280;54981;50.206;15.978;2023-11-22T16:12:17;99940.78;;;-0.06;100.00
68169;BME280;54981;50.206;15.978;2023-11-22T16:22:18;99931.16;;;-0.10;100.00
68169;BME280;54981;50.206;15.978;2023-11-22T16:32:19;99954.75;;;-0.07;100.00
68169;BME280;54981;50.206;15.978;2023-11-22T16:42:19;99983.47;;;-0.21;100.00
68169;BME280;54981;50.206;15.978;2023-11-22T16:52:21;99973.94;;;-0.01;100.00
68169;BME280;54981;50.206;15.978;2023-11-22T17:02:27;99970.59;;;0.30;100.00
68169;BME280;54981;50.206;15.978;2023-11-22T17:12:27;99942.63;;;0.26;100.00
68169;BME280;54981;50.206;15.978;2023-11-22T17:22:29;99960.06;;;0.13;100.00
68169;BME280;54981;50.206;15.978;2023-11-22T17:32:29;99958.31;;;0.16;100.00
68169;BME280;54981;50.206;15.978;2023-11-22T17:42:30;99994.97;;;0.10;100.00
68169;BME280;54981;50.206;15.978;2023-11-22T17:52:31;99982.78;;;0.31;100.00
68169;BME280;54981;50.206;15.978;2023-11-22T18:02:31;99981.13;;;0.48;100.00
68169;BME280;54981;50.206;15.978;2023-11-22T18:12:33;99984.59;;;0.41;100.00
68169;BME280;54981;50.206;15.978;2023-11-22T18:22:37;99971.53;;;0.56;100.00
68169;BME280;54981;50.206;15.978;2023-11-22T18:32:38;99969.81;;;0.71;100.00
68169;BME280;54981;50.206;15.978;2023-11-22T18:42:38;99968.06;;;0.80;100.00
68169;BME280;54981;50.206;15.978;2023-11-22T18:52:40;99966.31;;;0.81;100.00
68169;BME280;54981;50.206;15.978;2023-11-22T19:02:40;99966.31;;;0.89;100.00
68169;BME280;54981;50.206;15.978;2023-11-22T19:12:41;99959.31;;;0.91;100.00
68169;BME280;54981;50.206;15.978;2023-11-22T19:22:41;99926.09;;;0.87;100.00
68169;BME280;54981;50.206;15.978;2023-11-22T19:32:42;99925.25;;;0.84;100.00
68169;BME280;54981;50.206;15.978;2023-11-22T19:42:42;99912.16;;;0.68;100.00
68169;BME280;54981;50.206;15.978;2023-11-22T19:52:44;99892.03;;;0.87;100.00
68169;BME280;54981;50.206;15.978;2023-11-22T20:02:44;99871.94;;;0.96;100.00
68169;BME280;54981;50.206;15.978;2023-11-22T20:12:44;99871.03;;;1.00;100.00
68169;BME280;54981;50.206;15.978;2023-11-22T20:22:45;99879.78;;;0.93;100.00
68169;BME280;54981;50.206;15.978;2023-11-22T20:32:45;99865.81;;;0.88;100.00
68169;BME280;54981;50.206;15.978;2023-11-22T20:42:45;99858.81;;;0.79;100.00
68169;BME280;54981;50.206;15.978;2023-11-22T20:52:46;99888.56;;;0.89;100.00
68169;BME280;54981;50.206;15.978;2023-11-22T21:02:46;99874.56;;;0.59;100.00
68169;BME280;54981;50.206;15.978;2023-11-22T21:12:47;99881.53;;;0.42;100.00
68169;BME280;54981;50.206;15.978;2023-11-22T21:22:47;99871.09;;;0.60;100.00
68169;BME280;54981;50.206;15.978;2023-11-22T21:32:48;99834.38;;;0.82;100.00
68169;BME280;54981;50.206;15.978;2023-11-22T21:42:48;99832.63;;;0.87;100.00
68169;BME280;54981;50.206;15.978;2023-11-22T21:52:49;99815.16;;;0.83;100.00
68169;BME280;54981;50.206;15.978;2023-11-22T22:02:49;99809.03;;;0.78;100.00
68169;BME280;54981;50.206;15.978;2023-11-22T22:12:49;99779.31;;;0.85;100.00
68169;BME280;54981;50.206;15.978;2023-11-22T22:22:50;99790.66;;;0.96;100.00
68169;BME280;54981;50.206;15.978;2023-11-22T22:32:50;99791.50;;;1.00;100.00
68169;BME280;54981;50.206;15.978;2023-11-22T22:42:51;99789.78;;;0.99;100.00
68169;BME280;54981;50.206;15.978;2023-11-22T22:52:52;99785.38;;;1.12;100.00
68169;BME280;54981;50.206;15.978;2023-11-22T23:02:53;99775.72;;;1.15;100.00
68169;BME280;54981;50.206;15.978;2023-11-22T23:12:53;99733.78;;;1.11;100.00
68169;BME280;54981;50.206;15.978;2023-11-22T23:22:56;99715.47;;;1.01;100.00
68169;BME280;54981;50.206;15.978;2023-11-22T23:32:57;99711.09;;;1.02;100.00
68169;BME280;54981;50.206;15.978;2023-11-22T23:42:57;99703.22;;;1.06;100.00
68169;BME280;54981;50.206;15.978;2023-11-22T23:52:58;99677.00;;;1.03;100.00
